sensor_id;sensor_type;location;lat;lon;timestamp;temperature;humidity
50816;DHT22;39717;47.324;8.788;2022-09-27T00:00:27;10.30;99.90
50816;DHT22;39717;47.324;8.788;2022-09-27T00:02:53;10.20;99.90
50816;DHT22;39717;47.324;8.788;2022-09-27T00:05:19;10.10;99.90
50816;DHT22;39717;47.324;8.788;2022-09-27T00:07:45;10.10;99.90
50816;DHT22;39717;47.324;8.788;2022-09-27T00:10:12;10.10;99.90
50816;DHT22;39717;47.324;8.788;2022-09-27T00:12:38;10.00;99.90
50816;DHT22;39717;47.324;8.788;2022-09-27T00:15:05;10.00;99.90
50816;DHT22;39717;47.324;8.788;2022-09-27T00:17:31;10.00;99.90
50816;DHT22;39717;47.324;8.788;2022-09-27T00:19:59;10.00;99.90
50816;DHT22;39717;47.324;8.788;2022-09-27T00:22:25;10.00;99.90
50816;DHT22;39717;47.324;8.788;2022-09-27T00:24:52;10.00;99.90
50816;DHT22;39717;47.324;8.788;2022-09-27T00:27:18;10.00;99.90
50816;DHT22;39717;47.324;8.788;2022-09-27T00:29:45;10.00;99.90
50816;DHT22;39717;47.324;8.788;2022-09-27T00:32:12;10.00;99.90
50816;DHT22;39717;47.324;8.788;2022-09-27T00:34:39;10.00;99.90
50816;DHT22;39717;47.324;8.788;2022-09-27T00:37:06;10.00;99.90
50816;DHT22;39717;47.324;8.788;2022-09-27T00:39:33;9.90;99.90
50816;DHT22;39717;47.324;8.788;2022-09-27T00:41:59;9.90;99.90
50816;DHT22;39717;47.324;8.788;2022-09-27T00:47:13;9.90;99.90
50816;DHT22;39717;47.324;8.788;2022-09-27T00:49:50;9.80;99.90
50816;DHT22;39717;47.324;8.788;2022-09-27T00:52:33;9.90;99.90
50816;DHT22;39717;47.324;8.788;2022-09-27T00:55:08;9.90;99.90
50816;DHT22;39717;47.324;8.788;2022-09-27T00:57:36;9.90;99.90
50816;DHT22;39717;47.324;8.788;2022-09-27T01:00:08;9.90;99.90
50816;DHT22;39717;47.324;8.788;2022-09-27T01:02:38;9.90;99.90
50816;DHT22;39717;47.324;8.788;2022-09-27T01:05:08;9.80;99.90
50816;DHT22;39717;47.324;8.788;2022-09-27T01:07:34;9.90;99.90
50816;DHT22;39717;47.324;8.788;2022-09-27T01:10:00;10.00;99.90
50816;DHT22;39717;47.324;8.788;2022-09-27T01:15:41;10.10;99.90
50816;DHT22;39717;47.324;8.788;2022-09-27T01:23:46;10.10;99.90
50816;DHT22;39717;47.324;8.788;2022-09-27T01:29:33;10.20;99.90
50816;DHT22;39717;47.324;8.788;2022-09-27T01:32:31;10.10;99.90
50816;DHT22;39717;47.324;8.788;2022-09-27T01:35:03;10.20;99.90
50816;DHT22;39717;47.324;8.788;2022-09-27T01:37:38;10.20;99.90
50816;DHT22;39717;47.324;8.788;2022-09-27T01:40:17;10.10;99.90
50816;DHT22;39717;47.324;8.788;2022-09-27T01:42:59;10.20;99.90
50816;DHT22;39717;47.324;8.788;2022-09-27T01:45:36;10.20;99.90
50816;DHT22;39717;47.324;8.788;2022-09-27T01:48:08;10.30;99.90
50816;DHT22;39717;47.324;8.788;2022-09-27T01:50:43;10.20;99.90
50816;DHT22;39717;47.324;8.788;2022-09-27T01:53:21;10.20;99.90
50816;DHT22;39717;47.324;8.788;2022-09-27T01:55:50;10.20;99.90
50816;DHT22;39717;47.324;8.788;2022-09-27T01:58:28;10.20;99.90
50816;DHT22;39717;47.324;8.788;2022-09-27T02:00:57;10.20;99.90
50816;DHT22;39717;47.324;8.788;2022-09-27T02:03:29;10.20;99.90
50816;DHT22;39717;47.324;8.788;2022-09-27T02:06:06;10.20;99.90
50816;DHT22;39717;47.324;8.788;2022-09-27T02:08:37;10.20;99.90
50816;DHT22;39717;47.324;8.788;2022-09-27T02:11:10;10.10;99.90
50816;DHT22;39717;47.324;8.788;2022-09-27T02:13:59;10.20;99.90
50816;DHT22;39717;47.324;8.788;2022-09-27T02:22:14;10.20;99.90
50816;DHT22;39717;47.324;8.788;2022-09-27T02:24:56;10.30;99.90
50816;DHT22;39717;47.324;8.788;2022-09-27T02:27:27;10.20;99.90
50816;DHT22;39717;47.324;8.788;2022-09-27T02:30:14;10.20;99.90
50816;DHT22;39717;47.324;8.788;2022-09-27T02:32:41;10.10;99.90
50816;DHT22;39717;47.324;8.788;2022-09-27T02:37:39;10.20;99.90
50816;DHT22;39717;47.324;8.788;2022-09-27T02:40:05;10.30;99.90
50816;DHT22;39717;47.324;8.788;2022-09-27T02:42:32;10.10;99.90
50816;DHT22;39717;47.324;8.788;2022-09-27T02:45:00;10.00;99.90
50816;DHT22;39717;47.324;8.788;2022-09-27T02:47:45;9.90;99.90
50816;DHT22;39717;47.324;8.788;2022-09-27T02:50:30;9.80;99.90
50816;DHT22;39717;47.324;8.788;2022-09-27T03:04:21;9.20;99.90
50816;DHT22;39717;47.324;8.788;2022-09-27T03:06:48;9.20;99.90
50816;DHT22;39717;47.324;8.788;2022-09-27T03:09:20;9.10;99.90
50816;DHT22;39717;47.324;8.788;2022-09-27T03:11:46;9.10;99.90
50816;DHT22;39717;47.324;8.788;2022-09-27T03:14:14;9.10;99.90
50816;DHT22;39717;47.324;8.788;2022-09-27T03:16:39;9.20;99.90
50816;DHT22;39717;47.324;8.788;2022-09-27T03:19:07;9.20;99.90
50816;DHT22;39717;47.324;8.788;2022-09-27T03:21:33;9.10;99.90
50816;DHT22;39717;47.324;8.788;2022-09-27T03:24:00;9.10;99.90
50816;DHT22;39717;47.324;8.788;2022-09-27T03:26:26;9.20;99.90
50816;DHT22;39717;47.324;8.788;2022-09-27T03:28:52;9.20;99.90
50816;DHT22;39717;47.324;8.788;2022-09-27T03:31:18;9.20;99.90
50816;DHT22;39717;47.324;8.788;2022-09-27T03:33:43;9.40;99.90
50816;DHT22;39717;47.324;8.788;2022-09-27T03:36:09;9.30;99.90
50816;DHT22;39717;47.324;8.788;2022-09-27T03:38:36;9.50;99.90
50816;DHT22;39717;47.324;8.788;2022-09-27T03:41:03;9.50;99.90
50816;DHT22;39717;47.324;8.788;2022-09-27T03:43:29;9.50;99.90
50816;DHT22;39717;47.324;8.788;2022-09-27T03:45:55;9.60;99.90
50816;DHT22;39717;47.324;8.788;2022-09-27T03:48:21;9.60;99.90
50816;DHT22;39717;47.324;8.788;2022-09-27T03:50:47;9.50;99.90
50816;DHT22;39717;47.324;8.788;2022-09-27T03:53:12;9.50;99.90
50816;DHT22;39717;47.324;8.788;2022-09-27T03:55:38;9.60;99.90
50816;DHT22;39717;47.324;8.788;2022-09-27T03:58:04;9.70;99.90
50816;DHT22;39717;47.324;8.788;2022-09-27T04:00:30;9.60;99.90
50816;DHT22;39717;47.324;8.788;2022-09-27T04:02:58;9.60;99.90
50816;DHT22;39717;47.324;8.788;2022-09-27T04:05:26;9.70;99.90
50816;DHT22;39717;47.324;8.788;2022-09-27T04:07:52;9.70;99.90
50816;DHT22;39717;47.324;8.788;2022-09-27T04:10:18;9.60;99.90
50816;DHT22;39717;47.324;8.788;2022-09-27T04:12:44;9.70;99.90
50816;DHT22;39717;47.324;8.788;2022-09-27T04:15:10;9.70;99.90
50816;DHT22;39717;47.324;8.788;2022-09-27T04:17:36;9.60;99.90
50816;DHT22;39717;47.324;8.788;2022-09-27T04:20:03;9.70;99.90
50816;DHT22;39717;47.324;8.788;2022-09-27T04:22:29;9.60;99.90
50816;DHT22;39717;47.324;8.788;2022-09-27T04:24:55;9.60;99.90
50816;DHT22;39717;47.324;8.788;2022-09-27T04:27:21;9.60;99.90
50816;DHT22;39717;47.324;8.788;2022-09-27T04:29:47;9.50;99.90
50816;DHT22;39717;47.324;8.788;2022-09-27T04:32:13;9.50;99.90
50816;DHT22;39717;47.324;8.788;2022-09-27T04:34:39;9.50;99.90
50816;DHT22;39717;47.324;8.788;2022-09-27T04:37:24;9.40;99.90
50816;DHT22;39717;47.324;8.788;2022-09-27T04:39:51;9.40;99.90
50816;DHT22;39717;47.324;8.788;2022-09-27T04:42:17;9.40;99.90
50816;DHT22;39717;47.324;8.788;2022-09-27T04:44:44;9.40;99.90
50816;DHT22;39717;47.324;8.788;2022-09-27T04:47:09;9.40;99.90
50816;DHT22;39717;47.324;8.788;2022-09-27T04:49:35;9.40;99.90
50816;DHT22;39717;47.324;8.788;2022-09-27T04:52:01;9.50;99.90
50816;DHT22;39717;47.324;8.788;2022-09-27T04:54:27;9.50;99.90
50816;DHT22;39717;47.324;8.788;2022-09-27T04:56:54;9.40;99.90
50816;DHT22;39717;47.324;8.788;2022-09-27T04:59:19;9.50;99.90
50816;DHT22;39717;47.324;8.788;2022-09-27T05:01:46;9.40;99.90
50816;DHT22;39717;47.324;8.788;2022-09-27T05:04:12;9.40;99.90
50816;DHT22;39717;47.324;8.788;2022-09-27T05:06:37;9.50;99.90
50816;DHT22;39717;47.324;8.788;2022-09-27T05:09:03;9.50;99.90
50816;DHT22;39717;47.324;8.788;2022-09-27T05:11:29;9.40;99.90
50816;DHT22;39717;47.324;8.788;2022-09-27T05:13:55;9.50;99.90
50816;DHT22;39717;47.324;8.788;2022-09-27T05:16:20;9.40;99.90
50816;DHT22;39717;47.324;8.788;2022-09-27T05:18:46;9.40;99.90
50816;DHT22;39717;47.324;8.788;2022-09-27T05:21:12;9.50;99.90
50816;DHT22;39717;47.324;8.788;2022-09-27T05:23:38;9.50;99.90
50816;DHT22;39717;47.324;8.788;2022-09-27T05:26:05;9.50;99.90
50816;DHT22;39717;47.324;8.788;2022-09-27T05:28:31;9.60;99.90
50816;DHT22;39717;47.324;8.788;2022-09-27T05:31:00;9.60;99.90
50816;DHT22;39717;47.324;8.788;2022-09-27T05:33:26;9.60;99.90
50816;DHT22;39717;47.324;8.788;2022-09-27T05:35:54;9.50;99.90
50816;DHT22;39717;47.324;8.788;2022-09-27T05:38:23;9.40;99.90
50816;DHT22;39717;47.324;8.788;2022-09-27T05:40:50;9.30;99.90
50816;DHT22;39717;47.324;8.788;2022-09-27T05:43:17;9.30;99.90
50816;DHT22;39717;47.324;8.788;2022-09-27T05:45:43;9.20;99.90
50816;DHT22;39717;47.324;8.788;2022-09-27T05:48:10;9.20;99.90
50816;DHT22;39717;47.324;8.788;2022-09-27T05:50:37;9.20;99.90
50816;DHT22;39717;47.324;8.788;2022-09-27T05:53:04;9.10;99.90
50816;DHT22;39717;47.324;8.788;2022-09-27T05:55:30;9.10;99.90
50816;DHT22;39717;47.324;8.788;2022-09-27T05:57:57;9.10;99.90
50816;DHT22;39717;47.324;8.788;2022-09-27T06:00:25;9.10;99.90
50816;DHT22;39717;47.324;8.788;2022-09-27T06:02:59;9.10;99.90
50816;DHT22;39717;47.324;8.788;2022-09-27T06:05:27;9.10;99.90
50816;DHT22;39717;47.324;8.788;2022-09-27T06:07:59;9.20;99.90
50816;DHT22;39717;47.324;8.788;2022-09-27T06:10:25;9.30;99.90
50816;DHT22;39717;47.324;8.788;2022-09-27T06:12:51;9.30;99.90
50816;DHT22;39717;47.324;8.788;2022-09-27T06:15:17;9.30;99.90
50816;DHT22;39717;47.324;8.788;2022-09-27T06:17:43;9.20;99.90
50816;DHT22;39717;47.324;8.788;2022-09-27T06:20:09;9.20;99.90
50816;DHT22;39717;47.324;8.788;2022-09-27T06:22:35;9.10;99.90
50816;DHT22;39717;47.324;8.788;2022-09-27T06:25:02;9.00;99.90
50816;DHT22;39717;47.324;8.788;2022-09-27T06:27:32;8.90;99.90
50816;DHT22;39717;47.324;8.788;2022-09-27T06:32:24;8.80;99.90
50816;DHT22;39717;47.324;8.788;2022-09-27T06:34:49;8.70;99.90
50816;DHT22;39717;47.324;8.788;2022-09-27T06:37:15;8.60;99.90
50816;DHT22;39717;47.324;8.788;2022-09-27T06:39:41;8.30;99.90
50816;DHT22;39717;47.324;8.788;2022-09-27T06:42:06;8.30;99.90
50816;DHT22;39717;47.324;8.788;2022-09-27T06:44:32;8.10;99.90
50816;DHT22;39717;47.324;8.788;2022-09-27T06:46:59;7.90;99.90
50816;DHT22;39717;47.324;8.788;2022-09-27T06:49:25;7.80;99.90
50816;DHT22;39717;47.324;8.788;2022-09-27T06:51:52;7.70;99.90
50816;DHT22;39717;47.324;8.788;2022-09-27T06:54:19;7.60;99.90
50816;DHT22;39717;47.324;8.788;2022-09-27T06:56:48;7.50;99.90
50816;DHT22;39717;47.324;8.788;2022-09-27T06:59:13;7.40;99.90
50816;DHT22;39717;47.324;8.788;2022-09-27T07:01:59;7.40;99.90
50816;DHT22;39717;47.324;8.788;2022-09-27T07:04:25;7.30;99.90
50816;DHT22;39717;47.324;8.788;2022-09-27T07:06:51;7.30;99.90
50816;DHT22;39717;47.324;8.788;2022-09-27T07:09:18;7.40;99.90
50816;DHT22;39717;47.324;8.788;2022-09-27T07:11:43;7.40;99.90
50816;DHT22;39717;47.324;8.788;2022-09-27T07:14:10;7.50;99.90
50816;DHT22;39717;47.324;8.788;2022-09-27T07:16:37;7.50;99.90
50816;DHT22;39717;47.324;8.788;2022-09-27T07:19:03;7.50;99.90
50816;DHT22;39717;47.324;8.788;2022-09-27T07:21:32;7.50;99.90
50816;DHT22;39717;47.324;8.788;2022-09-27T07:23:58;7.40;99.90
50816;DHT22;39717;47.324;8.788;2022-09-27T07:26:24;7.50;99.90
50816;DHT22;39717;47.324;8.788;2022-09-27T07:28:50;7.50;99.90
50816;DHT22;39717;47.324;8.788;2022-09-27T07:31:17;7.40;99.90
50816;DHT22;39717;47.324;8.788;2022-09-27T07:33:43;7.40;99.90
50816;DHT22;39717;47.324;8.788;2022-09-27T07:36:10;7.40;99.90
50816;DHT22;39717;47.324;8.788;2022-09-27T07:38:37;7.60;99.90
50816;DHT22;39717;47.324;8.788;2022-09-27T07:41:08;7.60;99.90
50816;DHT22;39717;47.324;8.788;2022-09-27T07:43:34;7.60;99.90
50816;DHT22;39717;47.324;8.788;2022-09-27T07:46:00;7.80;99.90
50816;DHT22;39717;47.324;8.788;2022-09-27T07:48:26;7.70;99.90
50816;DHT22;39717;47.324;8.788;2022-09-27T07:50:52;7.70;99.90
50816;DHT22;39717;47.324;8.788;2022-09-27T07:53:18;7.70;99.90
50816;DHT22;39717;47.324;8.788;2022-09-27T07:55:52;7.80;99.90
50816;DHT22;39717;47.324;8.788;2022-09-27T07:58:19;7.90;99.90
50816;DHT22;39717;47.324;8.788;2022-09-27T08:00:45;7.90;99.90
50816;DHT22;39717;47.324;8.788;2022-09-27T08:03:16;8.00;99.90
50816;DHT22;39717;47.324;8.788;2022-09-27T08:05:43;8.30;99.90
50816;DHT22;39717;47.324;8.788;2022-09-27T08:08:10;8.30;99.90
50816;DHT22;39717;47.324;8.788;2022-09-27T08:10:35;8.30;99.90
50816;DHT22;39717;47.324;8.788;2022-09-27T08:13:03;8.30;99.90
50816;DHT22;39717;47.324;8.788;2022-09-27T08:15:33;8.30;99.90
50816;DHT22;39717;47.324;8.788;2022-09-27T08:18:06;8.30;99.90
50816;DHT22;39717;47.324;8.788;2022-09-27T08:20:34;8.30;99.90
50816;DHT22;39717;47.324;8.788;2022-09-27T08:23:00;8.30;99.90
50816;DHT22;39717;47.324;8.788;2022-09-27T08:25:29;8.40;99.90
50816;DHT22;39717;47.324;8.788;2022-09-27T08:27:57;8.40;99.90
50816;DHT22;39717;47.324;8.788;2022-09-27T08:30:24;8.50;99.90
50816;DHT22;39717;47.324;8.788;2022-09-27T08:32:54;8.60;99.90
50816;DHT22;39717;47.324;8.788;2022-09-27T08:35:20;8.80;99.90
50816;DHT22;39717;47.324;8.788;2022-09-27T08:37:57;8.90;99.90
50816;DHT22;39717;47.324;8.788;2022-09-27T08:48:51;9.40;99.90
50816;DHT22;39717;47.324;8.788;2022-09-27T08:51:23;9.30;99.90
50816;DHT22;39717;47.324;8.788;2022-09-27T08:54:02;9.40;99.90
50816;DHT22;39717;47.324;8.788;2022-09-27T08:56:29;9.30;99.90
50816;DHT22;39717;47.324;8.788;2022-09-27T08:59:03;9.40;99.90
50816;DHT22;39717;47.324;8.788;2022-09-27T09:01:31;9.70;99.90
50816;DHT22;39717;47.324;8.788;2022-09-27T09:04:00;9.60;99.20
50816;DHT22;39717;47.324;8.788;2022-09-27T09:11:50;9.70;94.50
50816;DHT22;39717;47.324;8.788;2022-09-27T09:23:35;9.90;87.00
50816;DHT22;39717;47.324;8.788;2022-09-27T09:32:12;9.90;90.30
50816;DHT22;39717;47.324;8.788;2022-09-27T09:34:52;10.00;91.10
50816;DHT22;39717;47.324;8.788;2022-09-27T09:37:38;10.00;99.90
50816;DHT22;39717;47.324;8.788;2022-09-27T09:40:24;10.20;91.00
50816;DHT22;39717;47.324;8.788;2022-09-27T09:55:47;10.40;95.40
50816;DHT22;39717;47.324;8.788;2022-09-27T10:01:07;10.40;78.20
50816;DHT22;39717;47.324;8.788;2022-09-27T10:03:36;10.40;85.00
50816;DHT22;39717;47.324;8.788;2022-09-27T10:06:02;10.40;85.10
50816;DHT22;39717;47.324;8.788;2022-09-27T10:08:28;10.40;79.30
50816;DHT22;39717;47.324;8.788;2022-09-27T10:10:53;10.40;88.80
50816;DHT22;39717;47.324;8.788;2022-09-27T10:13:21;10.50;86.30
50816;DHT22;39717;47.324;8.788;2022-09-27T10:16:02;10.50;91.00
50816;DHT22;39717;47.324;8.788;2022-09-27T10:18:29;10.40;85.00
50816;DHT22;39717;47.324;8.788;2022-09-27T10:20:57;10.30;91.20
50816;DHT22;39717;47.324;8.788;2022-09-27T10:23:24;10.30;96.50
50816;DHT22;39717;47.324;8.788;2022-09-27T10:25:59;10.20;99.90
50816;DHT22;39717;47.324;8.788;2022-09-27T10:31:00;9.90;99.60
50816;DHT22;39717;47.324;8.788;2022-09-27T10:33:28;9.70;97.20
50816;DHT22;39717;47.324;8.788;2022-09-27T10:35:56;9.30;94.40
50816;DHT22;39717;47.324;8.788;2022-09-27T10:38:35;8.80;99.90
50816;DHT22;39717;47.324;8.788;2022-09-27T10:41:33;8.30;99.90
50816;DHT22;39717;47.324;8.788;2022-09-27T10:44:23;8.10;99.90
50816;DHT22;39717;47.324;8.788;2022-09-27T10:46:53;8.10;99.90
50816;DHT22;39717;47.324;8.788;2022-09-27T10:49:29;8.00;99.90
50816;DHT22;39717;47.324;8.788;2022-09-27T10:52:02;8.10;99.90
50816;DHT22;39717;47.324;8.788;2022-09-27T10:54:31;8.20;99.90
50816;DHT22;39717;47.324;8.788;2022-09-27T10:57:36;8.30;99.90
50816;DHT22;39717;47.324;8.788;2022-09-27T11:00:06;8.40;99.90
50816;DHT22;39717;47.324;8.788;2022-09-27T11:02:35;8.40;99.90
50816;DHT22;39717;47.324;8.788;2022-09-27T11:05:05;8.60;99.90
50816;DHT22;39717;47.324;8.788;2022-09-27T11:07:35;8.80;99.90
50816;DHT22;39717;47.324;8.788;2022-09-27T11:10:29;8.70;99.90
50816;DHT22;39717;47.324;8.788;2022-09-27T11:16:04;8.30;99.90
50816;DHT22;39717;47.324;8.788;2022-09-27T11:26:31;8.60;99.90
50816;DHT22;39717;47.324;8.788;2022-09-27T11:42:33;9.30;99.90
50816;DHT22;39717;47.324;8.788;2022-09-27T12:29:28;9.70;99.90
50816;DHT22;39717;47.324;8.788;2022-09-27T16:51:17;10.80;92.50
50816;DHT22;39717;47.324;8.788;2022-09-27T16:54:02;9.00;99.90
50816;DHT22;39717;47.324;8.788;2022-09-27T16:56:31;8.80;99.90
50816;DHT22;39717;47.324;8.788;2022-09-27T16:58:59;8.90;99.90
50816;DHT22;39717;47.324;8.788;2022-09-27T17:01:28;8.80;99.90
50816;DHT22;39717;47.324;8.788;2022-09-27T17:03:53;8.70;99.90
50816;DHT22;39717;47.324;8.788;2022-09-27T17:06:22;8.60;99.90
50816;DHT22;39717;47.324;8.788;2022-09-27T17:08:48;8.60;99.90
50816;DHT22;39717;47.324;8.788;2022-09-27T17:11:15;8.50;99.90
50816;DHT22;39717;47.324;8.788;2022-09-27T17:13:43;8.40;99.90
50816;DHT22;39717;47.324;8.788;2022-09-27T17:16:10;8.40;99.90
50816;DHT22;39717;47.324;8.788;2022-09-27T17:18:38;8.30;99.90
50816;DHT22;39717;47.324;8.788;2022-09-27T17:21:06;8.30;99.90
50816;DHT22;39717;47.324;8.788;2022-09-27T17:23:33;8.30;99.90
50816;DHT22;39717;47.324;8.788;2022-09-27T17:26:08;8.30;99.90
50816;DHT22;39717;47.324;8.788;2022-09-27T17:28:38;8.30;99.90
50816;DHT22;39717;47.324;8.788;2022-09-27T17:31:06;8.30;99.90
50816;DHT22;39717;47.324;8.788;2022-09-27T17:33:44;8.40;99.90
50816;DHT22;39717;47.324;8.788;2022-09-27T17:36:14;8.40;99.90
50816;DHT22;39717;47.324;8.788;2022-09-27T17:38:40;8.50;99.90
50816;DHT22;39717;47.324;8.788;2022-09-27T17:41:09;8.50;99.90
50816;DHT22;39717;47.324;8.788;2022-09-27T17:43:39;8.50;99.90
50816;DHT22;39717;47.324;8.788;2022-09-27T17:46:12;8.50;99.90
50816;DHT22;39717;47.324;8.788;2022-09-27T17:48:37;8.50;99.90
50816;DHT22;39717;47.324;8.788;2022-09-27T17:51:23;8.50;99.90
50816;DHT22;39717;47.324;8.788;2022-09-27T17:53:49;8.50;99.90
50816;DHT22;39717;47.324;8.788;2022-09-27T17:56:16;8.50;99.90
50816;DHT22;39717;47.324;8.788;2022-09-27T17:59:00;8.50;99.90
50816;DHT22;39717;47.324;8.788;2022-09-27T18:01:26;8.50;99.90
50816;DHT22;39717;47.324;8.788;2022-09-27T18:03:53;8.50;99.90
50816;DHT22;39717;47.324;8.788;2022-09-27T18:06:20;8.50;99.90
50816;DHT22;39717;47.324;8.788;2022-09-27T18:08:48;8.50;99.90
50816;DHT22;39717;47.324;8.788;2022-09-27T18:11:17;8.60;99.90
50816;DHT22;39717;47.324;8.788;2022-09-27T18:13:44;8.60;99.90
50816;DHT22;39717;47.324;8.788;2022-09-27T18:16:12;8.60;99.90
50816;DHT22;39717;47.324;8.788;2022-09-27T18:18:40;8.60;99.90
50816;DHT22;39717;47.324;8.788;2022-09-27T18:21:09;8.70;99.90
50816;DHT22;39717;47.324;8.788;2022-09-27T18:23:42;8.70;99.90
50816;DHT22;39717;47.324;8.788;2022-09-27T18:26:10;8.80;99.90
50816;DHT22;39717;47.324;8.788;2022-09-27T18:28:37;8.80;99.90
50816;DHT22;39717;47.324;8.788;2022-09-27T18:31:12;8.70;99.90
50816;DHT22;39717;47.324;8.788;2022-09-27T18:33:39;8.80;99.90
50816;DHT22;39717;47.324;8.788;2022-09-27T18:36:09;8.70;99.90
50816;DHT22;39717;47.324;8.788;2022-09-27T18:38:35;8.90;99.90
50816;DHT22;39717;47.324;8.788;2022-09-27T18:41:06;8.90;99.90
50816;DHT22;39717;47.324;8.788;2022-09-27T18:43:32;8.90;99.90
50816;DHT22;39717;47.324;8.788;2022-09-27T18:46:03;8.70;99.90
50816;DHT22;39717;47.324;8.788;2022-09-27T18:48:31;8.80;99.90
50816;DHT22;39717;47.324;8.788;2022-09-27T18:50:58;8.70;99.90
50816;DHT22;39717;47.324;8.788;2022-09-27T18:53:24;8.70;99.90
50816;DHT22;39717;47.324;8.788;2022-09-27T18:55:50;8.70;99.90
50816;DHT22;39717;47.324;8.788;2022-09-27T18:58:16;8.70;99.90
50816;DHT22;39717;47.324;8.788;2022-09-27T19:00:43;8.80;99.90
50816;DHT22;39717;47.324;8.788;2022-09-27T19:03:13;8.80;99.90
50816;DHT22;39717;47.324;8.788;2022-09-27T19:05:42;8.80;99.90
50816;DHT22;39717;47.324;8.788;2022-09-27T19:08:08;8.70;99.90
50816;DHT22;39717;47.324;8.788;2022-09-27T19:10:34;8.80;99.90
50816;DHT22;39717;47.324;8.788;2022-09-27T19:13:00;8.80;99.90
50816;DHT22;39717;47.324;8.788;2022-09-27T19:15:26;8.90;99.90
50816;DHT22;39717;47.324;8.788;2022-09-27T19:17:52;9.00;99.90
50816;DHT22;39717;47.324;8.788;2022-09-27T19:20:18;9.00;99.90
50816;DHT22;39717;47.324;8.788;2022-09-27T19:22:44;9.10;99.90
50816;DHT22;39717;47.324;8.788;2022-09-27T19:25:10;9.00;99.90
50816;DHT22;39717;47.324;8.788;2022-09-27T19:27:36;8.90;99.90
50816;DHT22;39717;47.324;8.788;2022-09-27T19:30:06;9.00;99.90
50816;DHT22;39717;47.324;8.788;2022-09-27T19:32:32;9.20;99.90
50816;DHT22;39717;47.324;8.788;2022-09-27T19:34:58;9.20;99.90
50816;DHT22;39717;47.324;8.788;2022-09-27T19:37:24;9.20;99.90
50816;DHT22;39717;47.324;8.788;2022-09-27T19:39:50;9.20;99.90
50816;DHT22;39717;47.324;8.788;2022-09-27T19:42:15;9.30;99.90
50816;DHT22;39717;47.324;8.788;2022-09-27T19:44:42;9.30;99.90
50816;DHT22;39717;47.324;8.788;2022-09-27T19:47:08;9.20;99.90
50816;DHT22;39717;47.324;8.788;2022-09-27T19:49:34;9.20;99.90
50816;DHT22;39717;47.324;8.788;2022-09-27T19:52:00;9.30;99.90
50816;DHT22;39717;47.324;8.788;2022-09-27T19:54:28;9.40;99.90
50816;DHT22;39717;47.324;8.788;2022-09-27T19:56:53;9.30;99.90
50816;DHT22;39717;47.324;8.788;2022-09-27T19:59:19;9.40;99.90
50816;DHT22;39717;47.324;8.788;2022-09-27T20:01:45;9.30;99.90
50816;DHT22;39717;47.324;8.788;2022-09-27T20:04:11;9.30;99.90
50816;DHT22;39717;47.324;8.788;2022-09-27T20:06:40;9.20;99.90
50816;DHT22;39717;47.324;8.788;2022-09-27T20:09:06;9.20;99.90
50816;DHT22;39717;47.324;8.788;2022-09-27T20:11:31;9.10;99.90
50816;DHT22;39717;47.324;8.788;2022-09-27T20:13:58;9.10;99.90
50816;DHT22;39717;47.324;8.788;2022-09-27T20:16:25;9.20;99.90
50816;DHT22;39717;47.324;8.788;2022-09-27T20:18:53;9.10;99.90
50816;DHT22;39717;47.324;8.788;2022-09-27T20:21:21;9.20;99.90
50816;DHT22;39717;47.324;8.788;2022-09-27T20:23:49;9.10;99.90
50816;DHT22;39717;47.324;8.788;2022-09-27T20:26:16;9.00;99.90
50816;DHT22;39717;47.324;8.788;2022-09-27T20:28:46;8.90;99.90
50816;DHT22;39717;47.324;8.788;2022-09-27T20:31:15;8.90;99.90
50816;DHT22;39717;47.324;8.788;2022-09-27T20:33:41;8.90;99.90
50816;DHT22;39717;47.324;8.788;2022-09-27T20:36:33;9.00;99.90
50816;DHT22;39717;47.324;8.788;2022-09-27T20:39:08;9.20;99.90
50816;DHT22;39717;47.324;8.788;2022-09-27T20:41:40;9.20;99.90
50816;DHT22;39717;47.324;8.788;2022-09-27T20:44:11;9.30;99.90
50816;DHT22;39717;47.324;8.788;2022-09-27T20:46:38;9.40;99.90
50816;DHT22;39717;47.324;8.788;2022-09-27T20:49:06;9.30;99.90
50816;DHT22;39717;47.324;8.788;2022-09-27T20:51:36;9.40;99.90
50816;DHT22;39717;47.324;8.788;2022-09-27T20:54:04;9.40;99.90
50816;DHT22;39717;47.324;8.788;2022-09-27T20:56:33;9.40;99.90
50816;DHT22;39717;47.324;8.788;2022-09-27T20:59:04;9.40;99.90
50816;DHT22;39717;47.324;8.788;2022-09-27T21:01:31;9.50;99.90
50816;DHT22;39717;47.324;8.788;2022-09-27T21:04:03;9.50;99.90
50816;DHT22;39717;47.324;8.788;2022-09-27T21:06:30;9.60;99.90
50816;DHT22;39717;47.324;8.788;2022-09-27T21:08:57;9.50;99.90
50816;DHT22;39717;47.324;8.788;2022-09-27T21:11:24;9.40;99.90
50816;DHT22;39717;47.324;8.788;2022-09-27T21:13:50;9.30;99.90
50816;DHT22;39717;47.324;8.788;2022-09-27T21:16:19;9.10;99.90
50816;DHT22;39717;47.324;8.788;2022-09-27T21:18:51;9.20;99.90
50816;DHT22;39717;47.324;8.788;2022-09-27T21:21:18;9.10;99.90
50816;DHT22;39717;47.324;8.788;2022-09-27T21:23:45;9.00;99.90
50816;DHT22;39717;47.324;8.788;2022-09-27T21:26:13;9.00;99.90
50816;DHT22;39717;47.324;8.788;2022-09-27T21:28:47;9.20;99.90
50816;DHT22;39717;47.324;8.788;2022-09-27T21:31:19;9.20;99.90
50816;DHT22;39717;47.324;8.788;2022-09-27T21:33:49;9.20;99.90
50816;DHT22;39717;47.324;8.788;2022-09-27T21:36:15;9.20;99.90
50816;DHT22;39717;47.324;8.788;2022-09-27T21:38:41;9.30;99.90
50816;DHT22;39717;47.324;8.788;2022-09-27T21:41:11;9.40;99.90
50816;DHT22;39717;47.324;8.788;2022-09-27T21:43:40;9.40;99.90
50816;DHT22;39717;47.324;8.788;2022-09-27T21:46:15;9.30;99.90
50816;DHT22;39717;47.324;8.788;2022-09-27T21:48:44;9.40;99.90
50816;DHT22;39717;47.324;8.788;2022-09-27T21:51:15;9.40;99.90
50816;DHT22;39717;47.324;8.788;2022-09-27T21:53:47;9.30;99.90
50816;DHT22;39717;47.324;8.788;2022-09-27T21:56:15;9.30;99.90
50816;DHT22;39717;47.324;8.788;2022-09-27T21:58:41;9.30;99.90
50816;DHT22;39717;47.324;8.788;2022-09-27T22:01:13;9.30;99.90
50816;DHT22;39717;47.324;8.788;2022-09-27T22:03:41;9.20;99.90
50816;DHT22;39717;47.324;8.788;2022-09-27T22:06:35;9.20;99.90
50816;DHT22;39717;47.324;8.788;2022-09-27T22:09:04;9.30;99.90
50816;DHT22;39717;47.324;8.788;2022-09-27T22:11:35;9.30;99.90
50816;DHT22;39717;47.324;8.788;2022-09-27T22:14:01;9.20;99.90
50816;DHT22;39717;47.324;8.788;2022-09-27T22:16:27;9.20;99.90
50816;DHT22;39717;47.324;8.788;2022-09-27T22:18:57;9.20;99.90
50816;DHT22;39717;47.324;8.788;2022-09-27T22:21:27;9.20;99.90
50816;DHT22;39717;47.324;8.788;2022-09-27T22:23:58;9.20;99.90
50816;DHT22;39717;47.324;8.788;2022-09-27T22:26:26;9.20;99.90
50816;DHT22;39717;47.324;8.788;2022-09-27T22:28:53;9.10;99.90
50816;DHT22;39717;47.324;8.788;2022-09-27T22:31:19;9.10;99.90
50816;DHT22;39717;47.324;8.788;2022-09-27T22:33:54;9.20;99.90
50816;DHT22;39717;47.324;8.788;2022-09-27T22:36:21;9.10;99.90
50816;DHT22;39717;47.324;8.788;2022-09-27T22:38:48;9.10;99.90
50816;DHT22;39717;47.324;8.788;2022-09-27T22:41:15;9.30;99.90
50816;DHT22;39717;47.324;8.788;2022-09-27T22:43:41;9.30;99.90
50816;DHT22;39717;47.324;8.788;2022-09-27T22:46:07;9.30;99.90